createdAt,value
2022-10-27T00:02:03.343Z,91.37
2022-10-27T00:05:05.872Z,91.26
2022-10-27T00:08:08.435Z,90.78
2022-10-27T00:11:11.036Z,91.01
2022-10-27T00:14:13.544Z,91.74
2022-10-27T00:17:15.958Z,91.28
2022-10-27T00:20:18.468Z,91.82
2022-10-27T00:23:20.781Z,92.07
2022-10-27T00:26:23.285Z,91.07
2022-10-27T00:29:25.745Z,91.61
2022-10-27T00:32:28.176Z,91.80
2022-10-27T00:35:30.549Z,92.41
2022-10-27T00:38:33.638Z,91.98
2022-10-27T00:41:40.946Z,92.31
2022-10-27T00:44:47.651Z,92.86
2022-10-27T00:47:50.313Z,92.69
2022-10-27T00:50:53.631Z,92.80
2022-10-27T00:53:56.506Z,92.76
2022-10-27T00:56:59.271Z,92.63
2022-10-27T01:00:03.859Z,92.76
2022-10-27T01:03:08.753Z,92.31
2022-10-27T01:06:12.630Z,92.53
2022-10-27T01:09:15.055Z,92.35
2022-10-27T01:12:17.527Z,92.25
2022-10-27T01:15:22.512Z,92.89
2022-10-27T01:18:34.470Z,92.91
2022-10-27T01:22:02.859Z,93.50
2022-10-27T01:25:39.131Z,92.90
2022-10-27T01:28:54.547Z,92.92
2022-10-27T01:32:34.809Z,93.41
2022-10-27T01:35:43.175Z,93.27
2022-10-27T01:38:58.937Z,92.77
2022-10-27T01:42:04.783Z,92.65
2022-10-27T01:45:11.566Z,92.52
2022-10-27T01:48:15.559Z,92.51
2022-10-27T01:51:18.113Z,91.88
2022-10-27T01:54:21.363Z,92.37
2022-10-27T01:57:52.828Z,91.99
2022-10-27T02:01:24.523Z,91.33
2022-10-27T02:04:35.983Z,92.03
2022-10-27T02:08:01.917Z,93.04
2022-10-27T02:11:06.378Z,92.81
2022-10-27T02:14:09.580Z,92.98
2022-10-27T02:17:13.967Z,92.62
2022-10-27T02:20:23.388Z,91.85
2022-10-27T02:23:26.038Z,92.33
2022-10-27T02:26:38.913Z,92.46
2022-10-27T02:29:48.439Z,92.34
2022-10-27T02:32:51.727Z,91.27
2022-10-27T02:35:56.053Z,91.94
2022-10-27T02:38:58.450Z,91.73
2022-10-27T02:42:02.632Z,91.10
2022-10-27T02:45:05.363Z,90.90
2022-10-27T02:48:07.696Z,90.63
2022-10-27T02:51:10.155Z,90.35
2022-10-27T02:54:12.524Z,91.05
2022-10-27T02:57:16.699Z,91.55
2022-10-27T03:00:19.209Z,91.25
2022-10-27T03:03:22.776Z,90.83
2022-10-27T03:06:25.238Z,91.44
2022-10-27T03:09:27.920Z,92.27
2022-10-27T03:12:30.260Z,91.98
2022-10-27T03:15:34.559Z,91.75
2022-10-27T03:18:36.956Z,91.87
2022-10-27T03:21:39.310Z,91.38
2022-10-27T03:24:41.723Z,91.45
2022-10-27T03:27:45.191Z,90.69
2022-10-27T03:30:47.602Z,91.04
2022-10-27T03:33:51.650Z,90.80
2022-10-27T03:36:54.023Z,91.19
2022-10-27T03:39:56.483Z,90.95
2022-10-27T03:42:59.187Z,90.28
2022-10-27T03:46:01.697Z,90.10
2022-10-27T03:49:04.415Z,89.86
2022-10-27T03:52:06.955Z,89.90
2022-10-27T03:55:09.457Z,89.67
2022-10-27T03:58:16.531Z,89.67
2022-10-27T04:01:19.702Z,89.51
2022-10-27T04:04:22.091Z,89.28
2022-10-27T04:07:24.455Z,89.24
2022-10-27T04:10:27.213Z,89.15
2022-10-27T04:13:30.860Z,88.64
2022-10-27T04:16:33.496Z,88.34
2022-10-27T04:19:35.873Z,87.93
2022-10-27T04:22:39.387Z,87.67
2022-10-27T04:25:41.720Z,87.86
2022-10-27T04:28:44.258Z,88.01
2022-10-27T04:31:46.645Z,88.61
2022-10-27T04:34:49.023Z,88.03
2022-10-27T04:37:51.783Z,88.42
2022-10-27T04:40:54.322Z,88.13
2022-10-27T04:43:56.680Z,88.27
2022-10-27T04:46:59.019Z,88.48
2022-10-27T04:50:01.409Z,88.63
2022-10-27T04:53:04.150Z,88.77
2022-10-27T04:56:06.863Z,89.08
2022-10-27T04:59:09.328Z,89.18
2022-10-27T05:02:11.822Z,89.14
2022-10-27T05:05:14.545Z,88.68
2022-10-27T05:08:16.891Z,89.07
2022-10-27T05:11:19.273Z,88.96
2022-10-27T05:14:22.204Z,88.80
2022-10-27T05:17:24.649Z,88.92
2022-10-27T05:20:27.462Z,88.57
2022-10-27T05:23:29.916Z,88.43
2022-10-27T05:26:35.530Z,88.78
2022-10-27T05:29:40.928Z,88.54
2022-10-27T05:32:45.058Z,89.06
2022-10-27T05:35:50.966Z,90.29
2022-10-27T05:38:53.563Z,90.09
2022-10-27T05:41:56.084Z,90.29
2022-10-27T05:44:58.512Z,90.24
2022-10-27T05:48:06.794Z,90.14
2022-10-27T05:51:09.204Z,89.30
2022-10-27T05:54:11.710Z,88.46
2022-10-27T05:57:14.077Z,88.93
2022-10-27T06:00:18.720Z,90.08
2022-10-27T06:03:25.367Z,90.97
2022-10-27T06:06:28.025Z,90.85
2022-10-27T06:09:30.415Z,90.83
2022-10-27T06:12:32.931Z,91.10
2022-10-27T06:15:35.453Z,91.23
2022-10-27T06:18:37.926Z,90.73
2022-10-27T06:21:40.356Z,91.22
2022-10-27T06:24:42.807Z,91.09
2022-10-27T06:27:45.473Z,90.61
2022-10-27T06:30:48.010Z,91.05
2022-10-27T06:33:50.382Z,91.00
2022-10-27T06:36:52.960Z,91.15
2022-10-27T06:39:55.820Z,90.01
2022-10-27T06:43:07.180Z,89.79
2022-10-27T06:46:10.211Z,89.63
2022-10-27T06:49:15.404Z,89.88
2022-10-27T06:52:20.072Z,88.54
2022-10-27T06:55:22.584Z,87.85
2022-10-27T06:58:25.063Z,88.37
2022-10-27T07:01:28.738Z,87.02
2022-10-27T07:04:31.258Z,86.98
2022-10-27T07:07:33.757Z,87.46
2022-10-27T07:10:37.723Z,87.21
2022-10-27T07:13:40.235Z,87.26
2022-10-27T07:16:42.641Z,87.28
2022-10-27T07:19:44.954Z,86.88
2022-10-27T07:22:47.537Z,87.09
2022-10-27T07:25:50.837Z,86.85
2022-10-27T07:28:53.572Z,86.72
2022-10-27T07:31:56.186Z,86.77
2022-10-27T07:34:58.665Z,86.62
2022-10-27T07:38:01.360Z,86.68
2022-10-27T07:41:03.752Z,86.94
2022-10-27T07:44:06.088Z,86.35
2022-10-27T07:47:08.442Z,86.53
2022-10-27T07:50:11.273Z,86.67
2022-10-27T07:53:17.941Z,85.97
2022-10-27T07:56:20.297Z,86.05
2022-10-27T07:59:22.643Z,85.58
2022-10-27T08:02:25.230Z,85.28
2022-10-27T08:05:30.009Z,85.51
2022-10-27T08:08:33.369Z,84.88
2022-10-27T08:11:35.823Z,84.98
2022-10-27T08:14:38.283Z,84.33
2022-10-27T08:17:40.871Z,84.75
2022-10-27T08:21:17.428Z,85.26
2022-10-27T08:24:19.909Z,85.03
2022-10-27T08:27:22.402Z,85.07
2022-10-27T08:30:27.587Z,84.33
2022-10-27T08:33:30.060Z,84.87
2022-10-27T08:36:38.998Z,84.83
2022-10-27T08:39:41.402Z,84.67
2022-10-27T08:42:59.256Z,85.50
2022-10-27T08:46:15.242Z,84.99
2022-10-27T08:49:51.528Z,83.96
2022-10-27T08:53:04.953Z,83.85
2022-10-27T08:56:11.889Z,82.83
2022-10-27T08:59:24.389Z,82.10
2022-10-27T09:02:39.126Z,81.82
2022-10-27T09:05:50.827Z,80.99
2022-10-27T09:09:12.020Z,80.07
2022-10-27T09:12:44.377Z,80.25
2022-10-27T09:15:49.649Z,80.96
2022-10-27T09:18:56.021Z,80.06
2022-10-27T09:22:02.957Z,80.01
2022-10-27T09:25:12.811Z,80.00
2022-10-27T09:28:52.204Z,80.36
2022-10-27T09:32:05.253Z,79.85
2022-10-27T09:35:16.357Z,79.28
2022-10-27T09:38:26.019Z,79.71
2022-10-27T09:41:28.523Z,78.97
2022-10-27T09:44:31.265Z,78.80
2022-10-27T09:47:38.819Z,78.79
2022-10-27T09:50:49.790Z,78.24
2022-10-27T09:54:05.792Z,78.24
2022-10-27T09:57:18.927Z,77.50
2022-10-27T10:00:22.031Z,77.99
2022-10-27T10:03:25.057Z,77.69
2022-10-27T10:06:38.789Z,77.43
2022-10-27T10:09:41.516Z,78.16
2022-10-27T10:12:44.105Z,77.58
2022-10-27T10:15:46.939Z,77.44
2022-10-27T10:19:24.663Z,77.36
2022-10-27T10:22:30.408Z,76.19
2022-10-27T10:25:34.070Z,75.12
2022-10-27T10:28:42.358Z,75.42
2022-10-27T10:31:45.448Z,74.76
2022-10-27T10:34:48.508Z,74.57
2022-10-27T10:37:51.369Z,76.55
2022-10-27T10:41:17.102Z,72.83
2022-10-27T10:44:19.665Z,74.01
2022-10-27T10:47:29.186Z,74.09
2022-10-27T10:50:42.308Z,75.71
2022-10-27T10:53:53.290Z,71.94
2022-10-27T10:56:56.122Z,72.22
2022-10-27T10:59:58.950Z,72.07
2022-10-27T11:03:05.565Z,71.42
2022-10-27T11:06:17.585Z,71.21
2022-10-27T11:09:20.552Z,70.71
2022-10-27T11:12:29.674Z,70.47
2022-10-27T11:15:44.379Z,70.37
2022-10-27T11:18:55.909Z,71.41
2022-10-27T11:22:06.135Z,71.08
2022-10-27T11:25:18.656Z,70.98
2022-10-27T11:28:29.409Z,71.09
2022-10-27T11:31:42.404Z,71.78
2022-10-27T11:35:07.560Z,72.01
2022-10-27T11:38:30.794Z,70.86
2022-10-27T11:41:42.256Z,70.62
2022-10-27T11:45:02.837Z,70.04
2022-10-27T11:48:24.384Z,68.97
2022-10-27T11:51:37.220Z,69.80
2022-10-27T11:54:40.183Z,71.28
2022-10-27T11:57:56.596Z,69.68
2022-10-27T12:01:30.491Z,69.89
2022-10-27T12:04:48.070Z,70.29
2022-10-27T12:07:53.689Z,69.71
2022-10-27T12:11:19.059Z,69.34
2022-10-27T12:14:50.498Z,69.42
2022-10-27T12:18:06.013Z,69.18
2022-10-27T12:21:25.485Z,68.08
2022-10-27T12:24:34.096Z,68.64
2022-10-27T12:27:41.407Z,68.68
2022-10-27T12:30:47.419Z,69.80
2022-10-27T12:33:55.971Z,69.94
2022-10-27T12:37:23.380Z,69.58
2022-10-27T12:40:39.358Z,70.10
2022-10-27T12:44:05.890Z,69.29
2022-10-27T12:47:43.280Z,69.08
2022-10-27T12:51:14.809Z,69.55
2022-10-27T12:55:01.626Z,69.25
2022-10-27T12:58:14.161Z,69.89
2022-10-27T13:01:28.949Z,69.12
2022-10-27T13:05:11.886Z,69.46
2022-10-27T13:08:14.252Z,68.89
2022-10-27T13:11:32.831Z,69.07
2022-10-27T13:14:35.146Z,68.22
2022-10-27T13:18:22.505Z,69.01
2022-10-27T13:21:34.096Z,68.94
2022-10-27T13:24:54.869Z,70.06
2022-10-27T13:28:17.150Z,69.62
2022-10-27T13:31:24.563Z,69.79
2022-10-27T13:34:27.001Z,69.44
2022-10-27T13:37:41.370Z,70.58
2022-10-27T13:40:43.888Z,71.60
2022-10-27T13:43:48.087Z,72.79
2022-10-27T13:47:04.503Z,71.52
2022-10-27T13:50:33.837Z,70.76
2022-10-27T13:53:36.164Z,71.84
2022-10-27T13:56:39.898Z,72.00
2022-10-27T13:59:45.303Z,72.29
2022-10-27T14:03:06.090Z,72.76
2022-10-27T14:06:08.394Z,73.27
2022-10-27T14:09:35.776Z,73.72
2022-10-27T14:12:38.268Z,73.94
2022-10-27T14:15:40.792Z,74.25
2022-10-27T14:18:43.356Z,74.71
2022-10-27T14:21:47.587Z,74.10
2022-10-27T14:24:56.984Z,74.36
2022-10-27T14:28:20.497Z,74.95
2022-10-27T14:31:26.452Z,74.68
2022-10-27T14:34:28.822Z,75.99
2022-10-27T14:37:35.278Z,75.96
2022-10-27T14:40:39.385Z,75.87
2022-10-27T14:43:44.633Z,75.94
2022-10-27T14:46:49.314Z,75.58
2022-10-27T14:49:55.893Z,75.87
2022-10-27T14:53:00.823Z,75.89
2022-10-27T14:56:06.515Z,75.41
2022-10-27T14:59:19.591Z,75.51
2022-10-27T15:02:23.054Z,75.25
2022-10-27T15:05:31.942Z,75.55
2022-10-27T15:08:35.499Z,76.26
2022-10-27T15:11:37.970Z,75.94
2022-10-27T15:14:40.461Z,77.14
2022-10-27T15:17:42.989Z,77.78
2022-10-27T15:20:45.697Z,78.91
2022-10-27T15:23:51.106Z,79.16
2022-10-27T15:26:54.392Z,80.09
2022-10-27T15:29:57.243Z,80.04
2022-10-27T15:32:59.921Z,80.09
2022-10-27T15:36:18.991Z,80.64
2022-10-27T15:39:21.478Z,81.15
2022-10-27T15:42:35.928Z,80.71
2022-10-27T15:45:45.759Z,80.96
2022-10-27T15:49:14.812Z,80.77
2022-10-27T15:52:22.557Z,81.28
2022-10-27T15:55:27.408Z,81.47
2022-10-27T15:58:38.560Z,81.20
2022-10-27T16:01:43.577Z,81.23
2022-10-27T16:04:49.661Z,81.53
2022-10-27T16:07:52.561Z,81.46
2022-10-27T16:10:55.177Z,81.49
2022-10-27T16:13:59.788Z,81.35
2022-10-27T16:17:02.130Z,82.12
2022-10-27T16:20:10.862Z,82.22
2022-10-27T16:23:15.662Z,82.10
2022-10-27T16:26:21.299Z,82.25
2022-10-27T16:29:27.342Z,82.74
2022-10-27T16:32:32.459Z,82.21
2022-10-27T16:35:34.820Z,81.90
2022-10-27T16:38:37.156Z,82.28
2022-10-27T16:41:39.590Z,81.96
2022-10-27T16:44:42.195Z,82.36
2022-10-27T16:47:48.721Z,82.46
2022-10-27T16:50:51.115Z,82.27
2022-10-27T16:53:53.567Z,82.80
2022-10-27T16:56:56.137Z,82.85
2022-10-27T16:59:58.514Z,82.64
2022-10-27T17:03:01.096Z,82.63
2022-10-27T17:06:04.557Z,82.49
2022-10-27T17:09:08.331Z,82.09
2022-10-27T17:12:10.743Z,82.15
2022-10-27T17:15:13.297Z,81.65
2022-10-27T17:18:15.871Z,81.59
2022-10-27T17:21:18.441Z,81.90
2022-10-27T17:24:20.962Z,82.30
2022-10-27T17:27:23.421Z,82.35
2022-10-27T17:30:25.844Z,81.87
2022-10-27T17:33:28.525Z,81.88
2022-10-27T17:36:31.025Z,82.37
2022-10-27T17:39:33.502Z,82.92
2022-10-27T17:42:36.184Z,83.25
2022-10-27T17:45:38.782Z,83.05
2022-10-27T17:48:47.024Z,82.90
2022-10-27T17:51:49.663Z,82.98
2022-10-27T17:54:52.095Z,83.17
2022-10-27T17:57:54.993Z,83.51
2022-10-27T18:01:11.711Z,83.49
2022-10-27T18:04:14.454Z,83.82
2022-10-27T18:07:17.392Z,83.59
2022-10-27T18:10:19.929Z,83.81
2022-10-27T18:13:22.475Z,83.76
2022-10-27T18:16:27.585Z,83.60
2022-10-27T18:19:30.205Z,83.55
2022-10-27T18:22:32.814Z,83.71
2022-10-27T18:25:35.405Z,83.80
2022-10-27T18:31:45.602Z,84.11
2022-10-27T18:34:48.151Z,83.77
2022-10-27T18:37:50.823Z,83.62
2022-10-27T18:40:57.311Z,84.20
2022-10-27T18:43:59.885Z,84.23
2022-10-27T18:47:02.298Z,84.86
2022-10-27T18:50:08.093Z,84.83
2022-10-27T18:53:12.997Z,85.55
2022-10-27T18:56:15.673Z,85.62
2022-10-27T18:59:18.394Z,85.86
2022-10-27T19:02:21.548Z,86.33
2022-10-27T19:05:24.251Z,86.97
2022-10-27T19:08:27.125Z,87.00
2022-10-27T19:11:30.964Z,87.36
2022-10-27T19:14:33.354Z,88.31
2022-10-27T19:17:35.891Z,88.69
2022-10-27T19:20:41.611Z,88.36
2022-10-27T19:23:45.641Z,88.97
2022-10-27T19:26:48.179Z,89.07
2022-10-27T19:29:50.619Z,89.42
2022-10-27T19:32:53.464Z,89.77
2022-10-27T19:36:01.656Z,89.81
2022-10-27T19:39:08.464Z,89.69
2022-10-27T19:42:11.152Z,89.86
2022-10-27T19:45:13.822Z,90.25
2022-10-27T19:48:17.386Z,90.13
2022-10-27T19:51:22.771Z,90.19
2022-10-27T19:54:25.336Z,90.24
2022-10-27T19:57:27.855Z,90.72
2022-10-27T20:00:30.611Z,90.76
2022-10-27T20:03:33.593Z,91.47
2022-10-27T20:06:36.516Z,90.65
2022-10-27T20:09:39.058Z,91.03
2022-10-27T20:12:41.537Z,90.85
2022-10-27T20:15:43.938Z,91.34
2022-10-27T20:18:46.769Z,91.26
2022-10-27T20:21:49.802Z,91.59
2022-10-27T20:24:55.083Z,91.58
2022-10-27T20:27:57.695Z,91.92
2022-10-27T20:31:05.147Z,92.21
2022-10-27T20:34:10.421Z,92.53
2022-10-27T20:37:12.878Z,92.44
2022-10-27T20:40:15.350Z,92.40
2022-10-27T20:43:17.721Z,92.19
2022-10-27T20:46:20.893Z,92.37
2022-10-27T20:49:23.338Z,92.00
2022-10-27T20:52:25.712Z,92.06
2022-10-27T20:55:28.018Z,92.38
2022-10-27T20:58:31.148Z,92.48
2022-10-27T21:01:35.107Z,92.28
2022-10-27T21:04:37.659Z,92.44
2022-10-27T21:07:40.093Z,92.41
2022-10-27T21:10:42.482Z,92.70
2022-10-27T21:13:49.239Z,93.06
2022-10-27T21:16:52.262Z,92.78
2022-10-27T21:19:54.731Z,92.76
2022-10-27T21:22:57.325Z,93.19
2022-10-27T21:26:02.611Z,93.53
2022-10-27T21:29:05.084Z,93.21
2022-10-27T21:32:07.464Z,93.29
2022-10-27T21:35:09.946Z,93.13
2022-10-27T21:38:12.324Z,92.58
2022-10-27T21:41:16.400Z,92.43
2022-10-27T21:44:19.096Z,92.52
2022-10-27T21:47:21.448Z,92.86
2022-10-27T21:50:24.228Z,93.32
2022-10-27T21:53:26.984Z,93.40
2022-10-27T21:56:31.335Z,93.09
2022-10-27T21:59:33.729Z,93.04
2022-10-27T22:02:36.107Z,93.80
2022-10-27T22:05:38.480Z,93.91
2022-10-27T22:08:40.844Z,94.24
2022-10-27T22:11:43.282Z,93.91
2022-10-27T22:14:45.620Z,94.44
2022-10-27T22:17:47.993Z,94.41
2022-10-27T22:20:50.355Z,94.40
2022-10-27T22:23:53.123Z,94.35
2022-10-27T22:26:55.515Z,94.24
2022-10-27T22:29:57.943Z,93.98
2022-10-27T22:33:01.037Z,94.50
2022-10-27T22:36:08.666Z,94.34
2022-10-27T22:39:12.676Z,94.46
2022-10-27T22:42:15.051Z,94.37
2022-10-27T22:45:17.409Z,94.09
2022-10-27T22:48:21.302Z,95.15
2022-10-27T22:51:25.819Z,95.24
2022-10-27T22:54:28.131Z,95.15
2022-10-27T22:57:30.598Z,94.84
2022-10-27T23:00:33.397Z,94.14
2022-10-27T23:03:36.328Z,93.80
2022-10-27T23:06:39.048Z,93.90
2022-10-27T23:09:41.820Z,93.43
2022-10-27T23:12:44.147Z,93.74
2022-10-27T23:15:54.644Z,93.61
2022-10-27T23:19:00.787Z,94.00
2022-10-27T23:22:03.203Z,94.71
2022-10-27T23:25:06.431Z,94.86
2022-10-27T23:28:08.849Z,94.67
2022-10-27T23:31:11.214Z,94.88
2022-10-27T23:34:13.763Z,94.86
2022-10-27T23:37:16.125Z,95.66
2022-10-27T23:40:18.582Z,95.95
2022-10-27T23:43:21.418Z,95.79
2022-10-27T23:46:25.458Z,95.28
2022-10-27T23:49:27.805Z,93.88
2022-10-27T23:52:30.489Z,93.66
2022-10-27T23:55:32.811Z,93.44
2022-10-27T23:58:37.360Z,93.96
